Weather observations for the past three days for
Beaver Island, Beaver Island Airport
Imperial (Metric)
Date Time (edt) Wind (mph) Vis. (mi.) Weather Sky Cond. Temperature (ºF) Relative Humidity Wind Chill (°F) Heat Index (°F) Pressure Precipitation (in)
Air Dwpt 6 hour altimeter (in) sea level (mb) 1 hr 3 hr 6 hr
Max. Min.
06 14:55 E 6 10.00 Fair CLR 75.2 53.6 47% 78 30.15 0.0
06 14:35 SE 8 10.00 Fair CLR 75.2 53.6 47% 78 30.15 0.0
06 14:15 Vrbl 6 10.00 Fair CLR 77 51.8 42% 78 30.15 0.0
06 13:55 E 7 10.00 Fair CLR 75.2 53.6 76.3 52.3 47% 78 30.16 0.0
06 13:35 NE 8 10.00 A Few Clouds FEW037 75.2 55.4 50% 78 30.17 0.0
06 13:15 N 6 10.00 Mostly Cloudy BKN035 73.4 59 61% 30.17 0.0
06 12:55 NW 7 10.00 Mostly Cloudy BKN035 BKN041 73.4 59 61% 30.17 0.0
06 12:35 NW 5 10.00 A Few Clouds FEW041 75.2 59 57% 78 30.18 0.0
06 12:15 NW 7 10.00 Fair CLR 73.4 55.4 53% 30.18 0.0
06 11:55 NW 6 10.00 Fair CLR 73.4 57.2 57% 30.18 0.0
06 11:35 NW 6 10.00 Fair CLR 75.2 53.6 47% 78 30.18 0.0
06 11:15 NE 3 10.00 Fair CLR 73.4 59 61% 30.18 0.0
06 10:55 Vrbl 3 10.00 Fair CLR 71.6 59 65% 30.18 0.0
06 10:35 E 3 10.00 Fair CLR 71.6 60.8 69% 30.17 0.0
06 10:15 Vrbl 3 10.00 Fair CLR 69.8 60.8 73% 30.17 0.0
06 09:55 Vrbl 3 10.00 Fair CLR 68 62.6 83% 30.17 0.0
06 09:35 NE 3 10.00 Fair CLR 66.2 62.6 88% 30.17 0.0
06 09:15 Vrbl 2 10.00 Fair CLR 64.4 62.6 94% 30.17 0.0
06 08:55 Calm 10.00 Fair CLR 60.8 60.8 100% 30.16 0.0
06 08:35 Vrbl 1 10.00 Fair CLR 57.2 57.2 100% 30.16 0.0
06 08:15 E 1 10.00 Fair CLR 55.4 55.4 100% 30.15 0.0
06 07:55 E 2 10.00 Fair CLR 51.8 51.8 55.8 50 100% 30.15 0.0
06 07:35 E 2 4.00 Fog/Mist CLR 51.8 51.8 100% 30.15 0.0
06 07:15 E 2 1.25 Fog/Mist CLR 51.8 51.8 100% 30.14 0.0
06 06:55 E 2 7.00 Fog/Mist CLR 51.8 51.8 100% 30.14 0.0
06 06:35 E 1 5.00 Fog/Mist CLR 51.8 51.8 100% 30.14 0.0
06 06:15 SE 1 1.25 Fog/Mist CLR 50 50 100% 30.14 0.0
06 05:55 E 2 2.00 Fog/Mist CLR 51.8 51.8 100% 30.14 0.0
06 05:35 E 2 10.00 Fair CLR 51.8 51.8 100% 30.14 0.0
06 05:15 E 2 0.50 Fog VV005 51.8 51.8 100% 30.13 0.0
06 04:55 SE 1 0.50 Fog VV005 51.8 51.8 100% 30.13 0.0
06 04:35 S 1 0.50 Fog VV005 51.8 51.8 100% 30.12 0.0
06 04:15 Calm 0.50 Fog VV005 51.8 51.8 100% 30.12 0.0
06 03:55 E 1 0.50 Fog VV005 53.6 53.6 100% 30.11 0.0
06 03:35 E 1 10.00 Fair CLR 53.6 53.6 100% 30.11 0.0
06 03:15 E 2 0.75 Fog/Mist VV005 53.6 53.6 100% 30.11 0.0
06 02:55 E 1 0.50 Fog VV005 53.6 53.6 100% 30.11 0.0
06 02:35 E 1 0.50 Fog VV005 53.6 53.6 100% 30.11 0.0
06 02:15 E 2 0.75 Fog/Mist VV005 55.4 55.4 100% 30.11 0.0
06 01:55 E 2 0.50 Fog VV005 55.4 55.4 65.3 52.5 100% 30.11 0.0
06 01:35 E 2 1.00 Fog/Mist CLR 55.4 55.4 100% 30.1 0.0
06 01:15 E 2 2.00 Fog/Mist CLR 55.4 55.4 100% 30.11 0.0
06 00:55 E 2 0.75 Fog/Mist VV005 53.6 53.6 100% 30.1 0.0
06 00:35 SE 1 3.00 Fog/Mist CLR 55.4 55.4 100% 30.1 0.0
06 00:15 E 3 0.50 Fog VV005 55.4 55.4 100% 30.1 0.0
05 23:55 E 2 0.75 Fog/Mist VV005 55.4 55.4 100% 30.1 0.0
05 23:35 E 2 1.25 Fog/Mist CLR 55.4 55.4 100% 30.09 0.0
05 23:15 E 1 0.50 Fog VV005 57.2 57.2 100% 30.09 0.0
05 22:55 SE 1 0.25 Fog VV002 55.4 55.4 100% 30.09 0.0
05 22:35 E 1 0.50 Fog VV005 57.2 57.2 100% 30.08 0.0
05 22:15 E 1 1.00 Fog/Mist CLR 59 59 100% 30.08 0.0
05 21:55 E 2 0.75 Fog/Mist VV005 59 59 100% 30.08 0.0
05 21:35 E 2 1.50 Fog/Mist CLR 57.2 57.2 100% 30.07 0.0
05 21:15 S 1 0.50 Fog VV005 59 59 100% 30.07 0.0
05 20:55 Calm 10.00 Fair CLR 60.8 60.8 100% 30.07 0.0
05 20:35 NE 1 10.00 Fair CLR 60.8 60.8 100% 30.07 0.0
05 20:15 E 1 10.00 Fair CLR 64.4 60.8 88% 30.07 0.0
05 19:55 Vrbl 1 10.00 Fair CLR 64.4 60.8 76.8 65.3 88% 30.07 0.0
05 19:35 NW 1 10.00 Fair CLR 69.8 60.8 73% 30.07 0.0
05 19:15 N 2 10.00 Fair CLR 69.8 60.8 73% 30.06 0.0
05 18:55 Vrbl 1 10.00 Fair CLR 73.4 55.4 53% 30.06 0.0
05 18:35 E 3 10.00 Fair CLR 73.4 55.4 53% 30.06 0.0
05 18:15 E 7 10.00 Fair CLR 75.2 55.4 50% 78 30.05 0.0
05 17:55 SE 5 10.00 Fair CLR 75.2 55.4 50% 78 30.05 0.0
05 17:35 Vrbl 6 10.00 Fair CLR 75.2 55.4 50% 78 30.05 0.0
05 17:15 E 6 10.00 Fair CLR 75.2 55.4 50% 78 30.05 0.0
05 16:55 SE 6 10.00 Fair CLR 75.2 55.4 50% 78 30.05 0.0
05 16:35 Vrbl 3 10.00 Fair CLR 75.2 55.4 50% 78 30.05 0.0
05 16:15 SE 6 10.00 Fair CLR 75.2 55.4 50% 78 30.06 0.0
05 13:55 E 7 10.00 Fair CLR 75.2 60.8 75.6 60.3 61% 77 30.08 0.0
05 13:35 NE 6 10.00 Fair CLR 75.2 59 57% 78 30.08 0.0
05 13:15 NE 9 10.00 Fair CLR 75.2 59 57% 78 30.08 0.0
05 12:55 Vrbl 6 10.00 Fair CLR 75.2 60.8 61% 77 30.08 0.0
05 12:35 NE 8 10.00 Fair CLR 75.2 60.8 61% 77 30.09 0.0
05 12:15 E 6 10.00 Fair CLR 73.4 60.8 65% 30.09 0.0
05 11:55 E 7 10.00 Fair CLR 73.4 60.8 65% 30.09 0.0
05 11:35 Vrbl 7 10.00 Fair CLR 71.6 60.8 69% 30.09 0.0
05 11:15 NE 5 10.00 Fair CLR 71.6 62.6 73% 30.08 0.0
05 10:55 E 7 10.00 Fair CLR 69.8 60.8 73% 30.07 0.0
05 10:35 E 9 10.00 Fair CLR 69.8 60.8 73% 30.07 0.0
05 10:15 E 10 10.00 Fair CLR 69.8 60.8 73% 30.06 0.0
05 09:55 E 9 10.00 Fair CLR 68 62.6 83% 30.06 0.0
05 09:35 E 10 10.00 Fair CLR 68 62.6 83% 30.05 0.0
05 09:15 E 10 10.00 Fair CLR 68 62.6 83% 30.05 0.0
05 08:55 E 8 10.00 Fair CLR 68 62.6 83% 30.05 0.0
05 08:35 E 6 10.00 Fair CLR 66.2 62.6 88% 30.04 0.0
05 08:15 E 6 10.00 Fair CLR 64.4 62.6 94% 30.04 0.0
05 07:55 E 5 10.00 Fair CLR 60.8 60.8 63.3 56.7 100% 30.04 0.0
05 07:35 E 6 10.00 Fair CLR 59 59 100% 30.03 0.0
05 07:15 E 5 5.00 Fog/Mist CLR 57.2 57.2 100% 30.04 0.0
05 06:55 E 3 4.00 Fog/Mist CLR 59 59 100% 30.03 0.0
05 06:35 E 3 10.00 Fair CLR 60.8 59 94% 30.03 0.0
05 06:15 E 5 10.00 Fair CLR 62.6 60.8 94% 30.02 0.0
05 05:55 NE 6 10.00 Fair CLR 60.8 59 94% 30.02 0.0
05 05:35 E 3 10.00 Fair CLR 59 57.2 94% 30.02 0.0
05 05:15 E 5 10.00 Fair CLR 60.8 60.8 100% 30.02 0.0
05 04:55 NE 5 10.00 Fair CLR 60.8 60.8 100% 30.02 0.0
05 04:35 NE 6 10.00 Fair CLR 60.8 59 94% 30.02 0.0
05 04:15 E 6 10.00 Fair CLR 59 59 100% 30.02 0.0
05 03:55 E 5 10.00 Fair CLR 60.8 59 94% 30.02 0.0
05 03:35 E 5 10.00 Fair CLR 62.6 59 88% 30.02 0.0
05 03:15 E 6 10.00 Fair CLR 62.6 60.8 94% 30.02 0.0
05 02:55 NE 5 10.00 A Few Clouds FEW060 60.8 59 94% 30.02 0.0
05 02:35 NE 3 10.00 Mostly Cloudy BKN060 62.6 59 88% 30.02 0.0
05 02:15 NE 3 10.00 Partly Cloudy SCT060 62.6 59 88% 30.02 0.0
05 01:55 E 3 10.00 Partly Cloudy SCT060 62.6 60.8 67.1 63 94% 30.01 0.0
05 01:35 E 3 10.00 Fair CLR 64.4 60.8 88% 30.01 0.0
05 01:15 E 5 10.00 Fair CLR 64.4 60.8 88% 30.01 0.0
05 00:55 E 6 10.00 Fair CLR 64.4 60.8 88% 30.01 0.0
05 00:35 E 7 10.00 Fair CLR 64.4 60.8 88% 30.01 0.0
05 00:15 E 5 10.00 Fair CLR 64.4 60.8 88% 30 0.0
04 23:55 E 5 10.00 Fair CLR 64.4 62.6 94% 30.01 0.0
04 23:35 E 5 10.00 Fair CLR 64.4 62.6 94% 30.01 0.0
04 23:15 E 7 10.00 Fair CLR 64.4 62.6 94% 30.02 0.0
04 22:55 E 6 10.00 Fair CLR 64.4 64.4 100% 30.01 0.0
04 22:35 E 7 10.00 Fair CLR 66.2 64.4 94% 30.01 0.0
04 22:15 E 7 10.00 Fair CLR 66.2 64.4 94% 30 0.0
04 21:55 E 6 10.00 A Few Clouds FEW060 64.4 62.6 94% 30 0.0
04 21:35 NE 7 10.00 A Few Clouds FEW070 66.2 62.6 88% 30 0.0
04 21:15 E 7 10.00 A Few Clouds FEW070 66.2 62.6 88% 30 0.0
04 20:55 E 7 10.00 Fair CLR 66.2 62.6 88% 30 0.0
04 20:35 E 8 10.00 Partly Cloudy SCT050 66.2 62.6 88% 29.99 0.0
04 20:15 E 8 10.00 Partly Cloudy SCT055 66.2 62.6 88% 29.99 0.0
04 19:55 E 9 10.00 Fair CLR 66.2 64.4 69.6 66.9 94% 29.99 0.0
04 19:35 E 9 10.00 A Few Clouds FEW048 68 64.4 88% 29.99 0.0
04 19:15 E 10 10.00 Mostly Cloudy BKN046 BKN050 69.8 64.4 83% 29.98 0.0
04 18:55 NE 9 10.00 Overcast OVC044 68 64.4 88% 29.98 0.0
04 18:35 E 8 10.00 Overcast OVC038 68 64.4 88% 29.98 0.0
04 18:15 E 8 10.00 Overcast OVC036 68 64.4 88% 29.97 0.0
04 17:55 E 8 10.00 Overcast OVC036 68 64.4 88% 29.97 0.0
04 17:35 E 8 10.00 Overcast OVC036 68 64.4 88% 29.97 0.0
04 17:15 E 7 10.00 Overcast OVC036 68 64.4 88% 29.98 0.0
04 16:55 E 9 10.00 Overcast OVC036 68 64.4 88% 29.97 0.0
04 16:35 E 12 10.00 Overcast OVC036 68 64.4 88% 29.97 0.0
04 16:15 E 12 G 17 10.00 Overcast OVC038 68 64.4 88% 29.97 0.0
04 15:55 E 10 10.00 Overcast OVC038 68 64.4 88% 29.97 0.0
04 15:35 E 10 10.00 Overcast SCT034 OVC041 68 64.4 88% 29.97 0.0
04 15:15 E 12 G 17 10.00 Overcast FEW027 BKN037 OVC043 69.8 64.4 83% 29.97 0.0
04 14:55 E 9 10.00 Overcast BKN025 OVC037 68 64.4 88% 29.97 0.0
04 14:35 E 8 10.00 Overcast BKN025 OVC037 68 64.4 88% 29.98 0.0
04 14:15 NE 10 6.00 Fog/Mist SCT027 OVC038 68 64.4 88% 29.98 0.0
04 13:55 E 10 G 16 10.00 Overcast SCT029 OVC034 68 64.4 69.8 63.5 88% 29.98 0.0
04 13:35 E 8 10.00 Overcast OVC034 68 64.4 88% 29.98 0.0
04 13:15 E 9 10.00 Overcast OVC034 68 64.4 88% 29.98 0.0
04 12:35 E 9 10.00 Overcast OVC030 68 62.6 83% 29.98 0.0
04 12:15 E 9 10.00 Overcast OVC034 68 62.6 83% 29.98 0.0
04 11:55 E 12 10.00 Mostly Cloudy BKN034 BKN045 BKN120 69.8 64.4 83% 29.98 0.0 0.03
04 11:35 E 7 10.00 A Few Clouds FEW037 FEW120 68 64.4 88% 29.98 0.0
04 11:15 E 13 10.00 Mostly Cloudy SCT036 BKN049 BKN065 68 64.4 88% 29.96 0.0
04 10:55 E 8 10.00 Overcast SCT035 BKN047 OVC100 66.2 64.4 94% 29.99 0.0 0.04
04 10:35 NE 5 10.00 Overcast FEW049 OVC100 66.2 64.4 94% 30.01 0.0
04 10:15 NE 3 10.00 Overcast FEW049 FEW070 OVC100 66.2 62.6 88% 30.01 0.0
04 09:55 E 6 10.00 Overcast OVC110 66.2 62.6 88% 30 0.0 0.03
04 09:35 E 8 10.00 Mostly Cloudy BKN110 66.2 62.6 88% 29.99 0.0
04 09:15 E 9 10.00 Mostly Cloudy BKN110 66.2 62.6 88% 29.97 0.0
04 08:55 E 9 10.00 Mostly Cloudy BKN110 66.2 62.6 88% 29.97 0.0 0.03
04 08:35 E 9 10.00 Mostly Cloudy SCT075 BKN110 64.4 62.6 94% 29.96 0.0
04 08:15 E 6 10.00 Mostly Cloudy SCT075 BKN120 64.4 62.6 94% 29.98 0.0
04 07:55 SE 9 10.00 Partly Cloudy FEW075 SCT120 64.4 62.6 66.9 62.8 94% 29.96 0.0 0.02
04 07:35 E 9 10.00 A Few Clouds FEW120 62.6 62.6 100% 29.95 0.0
04 07:15 E 9 10.00 Fair CLR 62.6 62.6 100% 29.95 0.0
04 06:55 E 9 10.00 Fair CLR 62.6 62.6 100% 29.96 0.0 0.02
04 06:35 E 6 10.00 Light Rain FEW055 FEW070 SCT120 62.6 62.6 100% 29.98 0.0
04 06:15 NE 3 7.00 Light Rain Fog/Mist FEW090 BKN110 64.4 62.6 94% 30.01 0.0
04 05:55 E 5 3.00 Light Rain Fog/Mist FEW065 SCT085 64.4 62.6 94% 30.01 0.0 0.01
04 05:35 NE 8 6.00 Light Rain Fog/Mist SCT050 BKN065 64.4 62.6 94% 30.02 0.0
04 05:15 NE 6 10.00 Overcast OVC050 66.2 60.8 83% 29.97 0.0
04 04:55 E 5 10.00 Mostly Cloudy BKN055 BKN110 66.2 60.8 83% 29.96 0.0
04 04:35 E 8 10.00 Overcast OVC055 66.2 60.8 83% 29.95 0.0
04 04:15 E 8 10.00 Overcast OVC055 66.2 62.6 88% 29.95 0.0
04 03:55 E 8 10.00 Overcast BKN055 OVC110 66.2 60.8 83% 29.96 0.0
04 03:35 E 9 10.00 Overcast BKN065 OVC110 66.2 60.8 83% 29.94 0.0
04 03:15 E 7 10.00 Overcast OVC065 66.2 62.6 88% 29.96 0.0
04 02:55 E 7 10.00 Mostly Cloudy BKN065 BKN110 66.2 60.8 83% 29.96 0.0
04 02:35 E 7 10.00 Mostly Cloudy FEW065 BKN110 66.2 60.8 83% 29.96 0.0
04 02:15 E 7 10.00 Overcast SCT065 OVC095 66.2 62.6 88% 29.96 0.0
04 01:55 E 7 10.00 Overcast BKN065 OVC095 66.2 62.6 67.6 59.4 88% 29.98 0.0
04 01:35 E 6 10.00 Overcast OVC095 66.2 62.6 88% 29.99 0.0
04 01:15 E 5 10.00 Mostly Cloudy BKN095 64.4 62.6 94% 29.99 0.0
04 00:55 E 5 10.00 A Few Clouds FEW095 60.8 60.8 100% 29.99 0.0
04 00:35 E 2 10.00 Fair CLR 62.6 60.8 94% 29.99 0.0
04 00:15 E 5 10.00 Fair CLR 60.8 60.8 100% 29.99 0.0
03 23:55 E 5 10.00 Fair CLR 62.6 60.8 94% 29.99 0.0
03 23:35 NE 3 10.00 Fair CLR 60.8 60.8 100% 29.99 0.0
03 23:15 NE 3 10.00 Fair CLR 60.8 60.8 100% 29.98 0.0
03 22:55 SE 1 10.00 Fair CLR 60.8 59 94% 29.99 0.0
03 22:35 SE 3 10.00 Fair CLR 60.8 59 94% 29.98 0.0
03 22:15 E 2 10.00 Fair CLR 59 59 100% 29.97 0.0
03 21:55 E 2 10.00 Fair CLR 60.8 59 94% 29.98 0.0
03 21:35 E 1 10.00 Fair CLR 60.8 59 94% 29.97 0.0
03 21:15 E 2 10.00 A Few Clouds FEW100 62.6 60.8 94% 29.97 0.0
03 20:55 E 2 10.00 Partly Cloudy FEW090 SCT110 62.6 60.8 94% 29.96 0.0
03 20:35 Vrbl 1 10.00 Mostly Cloudy BKN090 BKN110 62.6 60.8 94% 29.96 0.0
03 20:15 Vrbl 1 10.00 Partly Cloudy SCT100 66.2 60.8 83% 29.96 0.0
03 19:55 E 2 10.00 Mostly Cloudy BKN100 68 60.8 77.4 67.6 78% 29.95 0.0
03 19:35 E 2 10.00 Partly Cloudy SCT100 69.8 60.8 73% 29.95 0.0
03 19:15 SE 3 10.00 Fair CLR 73.4 57.2 57% 29.94 0.0
03 18:55 NE 5 10.00 Fair CLR 73.4 57.2 57% 29.93 0.0
03 18:35 E 5 10.00 Fair CLR 73.4 55.4 53% 29.93 0.0
03 18:15 E 6 10.00 Fair CLR 75.2 55.4 50% 78 29.93 0.0
03 17:55 NE 6 10.00 Fair CLR 75.2 55.4 50% 78 29.92 0.0
03 17:35 E 6 10.00 Fair CLR 75.2 55.4 50% 78 29.92 0.0
03 17:15 E 8 10.00 Fair CLR 75.2 55.4 50% 78 29.92 0.0
03 16:55 E 9 10.00 Fair CLR 77 53.6 44% 78 29.93 0.0
03 16:35 E 8 10.00 Fair CLR 77 53.6 44% 78 29.94 0.0
03 16:15 E 6 10.00 Fair CLR 77 55.4 47% 79 29.95 0.0
03 15:55 E 6 10.00 Fair CLR 75.2 55.4 50% 78 29.96 0.0
03 15:35 E 5 10.00 Partly Cloudy SCT090 73.4 57.2 57% 29.97 0.0
03 15:15 E 5 10.00 Overcast OVC090 73.4 57.2 57% 29.98 0.0
Date Time (edt) Wind (mph) Vis. (mi.) Weather Sky Cond. Air Dwpt Max. Min. Relative Humidity Wind Chill (°F) Heat Index (°F) altimeter (in) sea level (mb) 1 hr 3 hr 6 hr
6 hour
Temperature (ºF) Pressure Precipitation (in)